Latest Weather Observations for Giles*

IDW60801

Issued at 7:53 am WST Tuesday 20 November 2018 (issued every 10 minutes, with the page automatically refreshed every 10 minutes)

About weather observations | Map of weather stations | Latest weather observations for WA | Other Formats
Station Details ID: 013017 Name: GILES METEOROLOGICAL OFFICE Lat: -25.03 Lon: 128.30 Height: 598.0 m
Data from the previous 72 hours. | See also: Recent months at Giles*

* Giles observations are collected in the South Australia time zone, which includes daylight saving in the summer period. Therefore, Rain since 9am value is with respect to South Australia local time.

Date/Time
WST
Temp
°C
App
Temp
°C
Dew
Point
°C
Rel
Hum
%
Delta-T
°C
Wind Press
QNH
hPa
Press
MSL
hPa
Rain since
9am
mm
Dir  Spd
km/h
Gust
km/h
Spd
kts
Gust
kts
20/07:30am 25.2 24.8 18.1 64 4.6 ESE 17 26 9 14 1010.4 1006.2 0.0
20/07:00am 23.9 23.2 18.2 70 3.7 SE 19 24 10 13 1010.4 1006.2 0.0
20/06:30am 22.3 20.3 17.4 74 3.1 SE 24 30 13 16 1010.2 1006.0 9.2
20/06:00am 22.4 21.6 18.4 78 2.6 ESE 20 28 11 15 1010.0 1005.9 9.2
20/05:30am 21.8 21.6 18.5 81 2.1 ESE 17 24 9 13 1010.0 1005.9 9.2
20/05:00am 20.7 21.3 18.7 88 1.3 ESE 13 20 7 11 1009.8 1005.7 9.2
20/04:30am 20.7 21.0 18.7 88 1.3 ESE 15 19 8 10 1009.5 1005.4 9.2
20/04:00am 20.9 21.5 18.6 87 1.5 ESE 13 17 7 9 1009.3 1005.1 9.2
20/03:30am 21.0 21.9 18.5 85 1.6 ESE 11 15 6 8 1009.2 1005.0 9.2
20/03:00am 21.2 22.2 18.6 85 1.7 ESE 11 15 6 8 1009.0 1004.8 9.2
20/02:30am 21.5 23.0 18.1 81 2.2 ESE 7 9 4 5 1008.9 1004.7 9.2
20/02:00am 21.8 22.9 17.9 78 2.5 E 9 11 5 6 1009.1 1004.9 9.2
20/01:30am 21.5 22.8 17.6 78 2.5 ENE 7 9 4 5 1009.2 1005.0 9.2
20/01:00am 22.6 23.4 16.4 68 3.9 ENE 7 9 4 5 1009.1 1004.9 9.2
20/12:30am 22.7 23.8 16.5 68 3.9 ENE 6 9 3 5 1009.3 1005.1 9.2
20/12:00am 22.8 24.0 16.9 69 3.7 ENE 6 9 3 5 1009.4 1005.2 9.2
 
Date/Time
WST
Temp
°C
App
Temp
°C
Dew
Point
°C
Rel
Hum
%
Delta-T
°C
Wind Press
QNH
hPa
Press
MSL
hPa
Rain since
9am
mm
Dir  Spd
km/h
Gust
km/h
Spd
kts
Gust
kts
19/11:30pm 23.7 24.4 16.2 63 4.7 ENE 7 9 4 5 1009.4 1005.2 9.2
19/11:00pm 23.9 23.8 16.0 61 4.9 ENE 11 13 6 7 1009.3 1005.1 9.2
19/10:30pm 23.7 24.3 16.7 65 4.4 ENE 9 9 5 5 1009.8 1005.7 9.2
19/10:00pm 24.6 25.1 16.5 60 5.1 E 9 13 5 7 1009.8 1005.7 9.2
19/09:30pm 24.1 25.4 17.2 65 4.4 SSE 6 11 3 6 1009.7 1005.6 9.2
19/09:00pm 24.8 26.2 16.4 59 5.3 SSE 4 9 2 5 1009.2 1005.0 9.2
19/08:30pm 24.7 25.0 17.0 62 4.9 NNE 11 22 6 12 1009.0 1004.8 9.2
19/08:00pm 24.6 24.4 17.6 65 4.5 N 15 32 8 17 1008.8 1004.6 9.2
19/07:31pm 25.6 21.5 16.0 55 6.0 N 32 50 17 27 1008.1 1004.0 9.2
19/07:30pm 25.5 21.5 16.1 56 5.9 N 32 48 17 26 1008.1 1004.0 9.2
19/07:00pm 26.0 22.0 16.2 54 6.2 N 32 50 17 27 1007.6 1003.4 9.0
19/06:54pm 26.2 22.0 15.8 52 6.5 N 32 50 17 27 1007.5 1003.3 9.0
19/06:30pm 26.7 23.9 15.3 49 7.1 N 24 37 13 20 1007.5 1003.3 9.0
19/06:00pm 26.9 24.8 15.2 48 7.3 NNE 20 28 11 15 1007.3 1003.1 9.0
19/05:30pm 26.4 25.7 16.5 54 6.3 NE 15 20 8 11 1007.3 1003.1 9.0
19/05:00pm 26.5 24.9 16.4 53 6.4 NNE 20 32 11 17 1007.3 1003.1 9.0
19/04:30pm 26.6 25.9 17.4 57 5.9 ENE 17 24 9 13 1007.5 1003.3 9.0
19/04:00pm 24.9 24.8 19.6 72 3.5 ENE 19 26 10 14 1007.7 1003.5 9.0
19/03:30pm 24.1 25.8 20.2 79 2.6 E 11 13 6 7 1008.1 1004.0 9.0
19/03:00pm 22.1 23.1 20.3 89 1.2 NNE 15 20 8 11 1009.1 1004.9 9.0
19/02:43pm 21.6 22.6 20.2 92 0.9 W 15 22 8 12 1009.3 1005.1 9.0
19/02:30pm 21.3 19.5 19.5 89 1.2 WSW 28 50 15 27 1010.7 1006.5 8.8
19/02:09pm 22.8 19.1 19.1 79 2.4 WSW 37 59 20 32 1009.1 1004.9 1.4
19/02:05pm 26.4 23.1 16.1 53 6.5 WNW 28 59 15 32 1008.7 1004.5 0.0
19/02:02pm 28.6 26.3 14.6 42 8.7 NW 20 44 11 24 1008.0 1003.9 0.0
19/02:00pm 34.2 30.8 10.6 23 14.1 NNW 19 28 10 15 1007.3 1003.1 0.0
19/01:30pm 34.2 30.2 10.6 23 14.1 N 22 35 12 19 1006.5 1002.4 0.0
19/01:00pm 34.5 30.2 9.3 21 14.8 NNW 22 35 12 19 1007.7 1003.5 0.0
19/12:30pm 35.0 29.0 10.1 22 14.8 NNW 32 43 17 23 1007.7 1003.5 0.0
19/12:00pm 36.2 31.4 10.4 21 15.5 NNW 26 37 14 20 1008.8 1004.6 0.0
19/11:34am 35.7 30.9 11.8 23 14.6 NNW 28 46 15 25 1009.3 1005.1 0.0
19/11:30am 35.9 30.9 11.1 22 15.0 NNW 28 44 15 24 1009.5 1005.4 0.0
19/11:00am 35.7 30.5 11.6 23 14.7 NNW 30 48 16 26 1010.4 1006.2 0.0
19/10:51am 35.6 30.4 11.6 23 14.6 NNW 30 48 16 26 1010.6 1006.4 0.0
19/10:30am 34.4 29.0 10.9 24 14.1 NNW 30 41 16 22 1011.0 1006.9 0.0
19/10:00am 34.0 28.7 12.5 27 13.2 NNW 32 46 17 25 1011.2 1007.1 0.0
19/09:30am 33.5 28.1 12.1 27 13.0 NNW 32 41 17 22 1011.6 1007.5 0.0
19/09:13am 34.0 29.1 12.5 27 13.2 NNW 30 48 16 26 1011.6 1007.5 0.0
19/09:00am 32.7 28.1 12.3 28 12.4 NNW 28 41 15 22 1011.8 1007.7 0.0
19/08:30am 32.1 26.7 12.1 29 12.1 N 32 43 17 23 1011.7 1007.6 0.0
19/08:00am 30.9 25.2 11.7 30 11.5 N 33 43 18 23 1011.8 1007.7 0.0
19/07:30am 29.7 23.9 11.5 32 10.8 N 33 43 18 23 1011.7 1007.6 0.0
19/07:00am 27.8 22.4 11.0 35 9.8 N 30 41 16 22 1011.6 1007.5 0.0
19/06:30am 28.0 22.5 10.4 33 10.2 N 30 39 16 21 1011.4 1007.3 0.0
19/06:00am 27.0 21.7 9.9 34 9.8 N 28 37 15 20 1011.4 1007.3 0.0
19/05:30am 26.5 21.9 9.6 34 9.6 N 24 33 13 18 1011.4 1007.3 0.0
19/05:00am 26.0 22.3 9.6 35 9.3 N 19 28 10 15 1011.3 1007.2 0.0
19/04:30am 25.2 22.4 10.1 38 8.6 N 15 20 8 11 1011.0 1006.9 0.0
19/04:00am 25.1 23.2 10.4 39 8.4 N 11 15 6 8 1010.8 1006.6 0.0
19/03:30am 26.1 23.4 10.2 36 9.1 N 15 20 8 11 1010.6 1006.4 0.0
19/03:00am 26.7 23.0 10.1 35 9.5 N 20 32 11 17 1010.6 1006.4 0.0
19/02:30am 26.9 22.3 11.1 37 9.2 N 26 32 14 17 1009.9 1005.8 0.0
19/02:00am 27.5 22.9 11.1 36 9.6 N 26 39 14 21 1009.9 1005.8 0.0
19/01:30am 27.4 23.6 11.2 36 9.5 N 22 30 12 16 1009.7 1005.6 0.0
19/01:00am 27.6 23.8 11.0 35 9.7 N 22 28 12 15 1009.6 1005.5 0.0
19/12:30am 27.7 24.3 11.1 35 9.7 N 20 28 11 15 1009.7 1005.6 0.0
19/12:00am 28.0 24.1 10.9 34 10.0 N 22 30 12 16 1010.3 1006.1 0.0
 
Date/Time
WST
Temp
°C
App
Temp
°C
Dew
Point
°C
Rel
Hum
%
Delta-T
°C
Wind Press
QNH
hPa
Press
MSL
hPa
Rain since
9am
mm
Dir  Spd
km/h
Gust
km/h
Spd
kts
Gust
kts
18/11:30pm 28.5 24.6 10.7 33 10.4 N 22 28 12 15 1010.7 1006.5 0.0
18/11:00pm 28.9 25.2 10.3 31 10.8 N 20 26 11 14 1011.1 1007.0 0.0
18/10:30pm 29.6 25.8 9.7 29 11.5 N 20 28 11 15 1011.3 1007.2 0.0
18/10:00pm 30.4 26.2 8.1 25 12.6 N 20 28 11 15 1011.4 1007.3 0.0
18/09:30pm 30.7 26.2 6.3 21 13.4 NNW 19 26 10 14 1011.5 1007.4 0.0
18/09:00pm 30.9 26.6 5.4 20 13.8 NW 17 24 9 13 1011.5 1007.4 0.0
18/08:30pm 30.2 26.4 5.6 21 13.3 NW 15 17 8 9 1011.8 1007.7 0.0
18/08:00pm 30.0 26.7 6.2 22 13.0 NW 13 15 7 8 1011.8 1007.7 0.0
18/07:30pm 30.0 26.9 7.1 23 12.7 NW 13 15 7 8 1011.5 1007.4 0.0
18/07:00pm 30.5 27.7 6.8 22 13.1 NW 11 13 6 7 1011.4 1007.3 0.0
18/06:30pm 31.2 29.2 6.9 22 13.5 NW 7 9 4 5 1011.2 1007.1 0.0
18/06:00pm 32.3 29.5 5.3 18 14.7 NW 9 13 5 7 1011.1 1007.0 0.0
18/05:30pm 33.7 30.3 4.2 15 15.9 NW 11 20 6 11 1010.8 1006.6 0.0
18/05:00pm 34.6 30.7 3.4 14 16.7 NW 13 20 7 11 1010.6 1006.4 0.0
18/04:30pm 34.9 30.2 3.0 13 17.0 NW 17 24 9 13 1010.4 1006.2 0.0
18/04:00pm 35.4 31.4 3.0 13 17.3 NW 13 22 7 12 1010.5 1006.3 0.0
18/03:30pm 35.0 32.0 4.3 14 16.7 NNE 9 15 5 8 1010.6 1006.4 0.0
18/03:00pm 35.1 32.5 4.2 14 16.8 NNW 7 22 4 12 1010.7 1006.5 0.0
18/02:30pm 34.9 30.7 3.7 14 16.8 N 15 24 8 13 1010.9 1006.7 0.0
18/02:00pm 33.7 29.6 4.2 15 15.9 N 15 20 8 11 1011.2 1007.1 0.0
18/01:30pm 34.8 31.1 4.5 15 16.5 N 13 26 7 14 1011.7 1007.6 0.0
18/01:00pm 34.3 31.5 5.2 16 16.0 NNW 9 15 5 8 1012.3 1008.1 0.0
18/12:30pm 34.0 29.4 3.8 15 16.2 N 17 28 9 15 1012.7 1008.6 0.0
18/12:00pm 32.8 28.1 5.3 18 15.0 N 19 30 10 16 1013.1 1009.0 0.0
18/11:30am 32.6 27.7 5.2 18 14.9 NNE 20 32 11 17 1013.6 1009.5 0.0
18/11:00am 32.0 27.2 5.6 19 14.4 N 20 28 11 15 1014.2 1010.1 0.0
18/10:30am 32.4 27.3 6.1 19 14.5 NNE 22 32 12 17 1014.7 1010.6 0.0
18/10:00am 31.8 26.2 5.2 18 14.4 N 24 35 13 19 1015.1 1011.0 0.0
18/09:30am 31.3 25.7 5.5 19 14.0 N 24 33 13 18 1015.7 1011.6 0.0
18/09:00am 30.8 25.0 4.2 18 14.1 NNE 24 39 13 21 1015.8 1011.7 0.0
18/08:30am 29.7 24.2 5.9 22 12.9 NNE 24 33 13 18 1015.9 1011.8 0.0
18/08:00am 29.3 23.7 5.4 22 12.8 NNE 24 35 13 19 1015.8 1011.7 0.0
18/07:30am 28.8 24.0 5.4 22 12.5 NNE 20 28 11 15 1015.7 1011.6 0.0
18/07:00am 27.5 23.4 6.4 26 11.4 NNE 17 20 9 11 1015.6 1011.5 0.0
18/06:30am 26.6 23.3 4.8 24 11.4 E 11 22 6 12 1015.6 1011.5 0.0
18/06:00am 25.2 22.1 7.3 32 9.7 E 13 15 7 8 1015.0 1010.9 0.0
18/05:30am 23.6 21.0 7.9 36 8.5 E 11 17 6 9 1014.9 1010.8 0.0
18/05:00am 20.1 17.5 9.5 50 5.8 E 13 17 7 9 1014.5 1010.4 0.0
18/04:30am 19.1 17.8 9.8 55 5.1 E 7 13 4 7 1014.5 1010.4 0.0
18/04:00am 20.1 18.6 9.3 49 5.9 E 7 11 4 6 1014.1 1010.0 0.0
18/03:30am 18.8 18.0 10.9 60 4.4 E 6 9 3 5 1014.0 1009.8 0.0
18/03:00am 19.9 18.2 9.7 51 5.6 E 9 11 5 6 1013.9 1009.7 0.0
18/02:30am 19.6 18.1 10.4 55 5.1 E 9 11 5 6 1013.6 1009.5 0.0
18/02:00am 21.0 19.4 10.3 50 6.0 E 9 11 5 6 1013.6 1009.5 0.0
18/01:30am 21.6 20.1 10.6 49 6.2 E 9 13 5 7 1013.6 1009.5 0.0
18/01:00am 21.9 21.3 10.3 47 6.5 E 4 11 2 6 1014.0 1009.8 0.0
18/12:30am 21.2 20.7 10.9 51 5.8 E 4 7 2 4 1014.4 1010.3 0.0
18/12:00am 23.1 23.1 9.7 42 7.5 CALM 0 7 0 4 1014.6 1010.5 0.0
 
Date/Time
WST
Temp
°C
App
Temp
°C
Dew
Point
°C
Rel
Hum
%
Delta-T
°C
Wind Press
QNH
hPa
Press
MSL
hPa
Rain since
9am
mm
Dir  Spd
km/h
Gust
km/h
Spd
kts
Gust
kts
17/11:30pm 23.3 23.3 9.9 42 7.5 CALM 0 0 0 0 1015.0 1010.9 0.0
17/11:00pm 23.4 22.3 10.1 43 7.5 E 6 7 3 4 1015.6 1011.5 0.0
17/10:30pm 25.1 22.1 9.2 36 8.9 E 15 20 8 11 1015.9 1011.8 0.0
17/10:00pm 24.9 22.8 9.9 38 8.5 E 11 17 6 9 1016.2 1012.1 0.0
17/09:30pm 24.0 23.7 11.6 45 7.2 E 4 7 2 4 1016.3 1012.2 0.0
17/09:00pm 24.9 23.0 10.6 40 8.2 E 11 19 6 10 1016.1 1012.0 0.0
17/08:30pm 24.5 22.7 10.7 41 7.9 E 11 15 6 8 1015.9 1011.8 0.0
17/08:00pm 25.1 21.9 10.1 38 8.5 E 17 20 9 11 1015.4 1011.3 0.0
17/07:30pm 25.7 22.1 9.8 36 9.0 E 19 26 10 14 1015.2 1011.1 0.0
17/07:00pm 26.0 22.8 10.0 36 9.1 E 17 24 9 13 1015.3 1011.2 0.0
17/06:30pm 26.5 22.9 10.0 35 9.4 E 19 26 10 14 1015.4 1011.3 0.0
17/06:00pm 27.4 23.6 9.7 33 10.1 E 20 30 11 16 1015.4 1011.3 0.0
17/05:30pm 27.9 24.1 9.2 31 10.6 E 19 30 10 16 1015.2 1011.1 0.0
17/05:00pm 28.2 23.9 9.4 30 10.7 E 22 30 12 16 1014.9 1010.8 0.0
17/04:30pm 28.4 24.1 9.5 30 10.8 E 22 32 12 17 1015.0 1010.9 0.0
17/04:00pm 29.1 24.0 9.3 29 11.3 E 26 35 14 19 1014.9 1010.8 0.0
17/03:30pm 29.7 25.5 9.8 29 11.5 E 22 35 12 19 1015.0 1010.9 0.0
17/03:00pm 30.4 25.9 10.1 28 11.8 E 24 37 13 20 1015.1 1011.0 0.0
17/02:30pm 30.8 26.0 10.3 28 12.0 E 26 35 14 19 1015.1 1011.0 0.0
17/02:00pm 30.0 26.6 10.5 30 11.4 E 19 28 10 15 1015.4 1011.3 0.0
17/01:30pm 28.7 25.3 11.4 34 10.2 E 20 28 11 15 1016.0 1011.9 0.0
17/01:00pm 27.1 24.2 12.9 41 8.5 E 20 30 11 16 1016.3 1012.2 0.0
17/12:30pm 26.0 23.9 14.6 49 7.0 NNE 19 26 10 14 1016.7 1012.6 0.0
17/12:00pm 29.2 26.1 10.2 30 11.0 NE 17 22 9 12 1016.9 1012.8 0.0
17/11:30am 29.6 27.3 10.6 30 11.1 NE 13 22 7 12 1017.4 1013.3 0.0
17/11:00am 30.0 27.0 10.5 30 11.4 NE 17 24 9 13 1017.8 1013.7 0.0
17/10:30am 28.9 26.0 9.5 29 11.1 NE 15 24 8 13 1018.2 1014.1 0.0
17/10:00am 29.1 24.8 8.0 26 11.8 NE 20 30 11 16 1018.6 1014.6 0.0
17/09:30am 29.6 23.6 5.3 21 13.0 NE 26 33 14 18 1018.8 1014.8 0.0
17/09:00am 29.1 22.6 2.7 18 13.5 ENE 26 37 14 20 1018.9 1014.9 0.0
17/08:30am 28.2 21.2 1.8 18 13.2 ENE 28 39 15 21 1018.9 1014.9 0.0
17/08:00am 27.4 21.8 3.3 21 12.3 E 22 30 12 16 1018.9 1014.9 0.0
17/07:30am 26.3 20.4 3.8 23 11.5 E 24 35 13 19 1019.1 1015.0 0.0
17/07:00am 26.6 19.9 3.4 22 11.8 E 28 39 15 21 1018.7 1014.7 0.0
17/06:30am 25.3 20.4 6.9 31 9.9 E 22 35 12 19 1018.4 1014.3 0.0
17/06:00am 24.3 20.9 9.2 38 8.4 ENE 17 24 9 13 1018.2 1014.1 0.0
17/05:30am 21.8 21.1 12.1 54 5.6 ENE 7 11 4 6 1018.1 1014.0 0.0

Other Formats:

Comma delimited format used in spreadsheet applications
http://www.bom.gov.au/fwo/IDW60801/IDW60801.94461.axf

JavaScript Object Notation format (JSON) in row-major order
http://www.bom.gov.au/fwo/IDW60801/IDW60801.94461.json